Time;durP1;ratioP1;P1;durP2;ratioP2;P2;SDS_P1;SDS_P2;PMS_P1;PMS_P2;Temp;Humidity;BMP_temperature;BMP_pressure;BME280_temperature;BME280_humidity;BME280_pressure;Samples;Min_cycle;Max_cycle;Signal;HPM_P1;HPM_P2
2022/09/14 00:00:55;;;;;;;;;7.00;7.00;;;;;-144.76;100.00;60493.00;5091912;27;44961;-81
2022/09/14 00:03:21;;;;;;;;;5.75;5.00;;;;;-144.76;100.00;60493.00;5091545;27;45114;-81
2022/09/14 00:05:47;;;;;;;;;6.00;5.00;;;;;-144.76;100.00;60493.00;5091600;27;45741;-81
2022/09/14 00:08:13;;;;;;;;;7.00;7.00;;;;;-144.76;100.00;60493.00;5091717;27;44923;-81
2022/09/14 00:10:43;;;;;;;;;6.00;5.00;;;;;-144.76;100.00;60493.00;5091658;27;45075;-80
2022/09/14 00:13:10;;;;;;;;;5.25;5.25;;;;;-144.76;100.00;60493.00;5091732;27;45177;-81
2022/09/14 00:15:40;;;;;;;;;6.25;5.75;;;;;-144.76;100.00;60493.00;5091011;27;45750;-81
2022/09/14 00:18:08;;;;;;;;;6.25;5.00;;;;;-144.76;100.00;60493.00;5091007;27;45012;-81
2022/09/14 00:20:34;;;;;;;;;5.00;5.00;;;;;-144.76;100.00;60493.00;5091585;27;44964;-81
2022/09/14 00:22:59;;;;;;;;;6.75;6.75;;;;;-144.76;100.00;60493.00;5091510;28;44912;-81
2022/09/14 00:25:25;;;;;;;;;6.00;5.50;;;;;-144.76;100.00;60493.00;5091013;27;45447;-81
2022/09/14 00:27:51;;;;;;;;;6.00;6.00;;;;;-144.76;100.00;60493.00;5090028;28;44881;-81
2022/09/14 00:30:16;;;;;;;;;8.00;7.00;;;;;-144.76;100.00;60493.00;5095031;27;45115;-81
2022/09/14 00:32:42;;;;;;;;;6.00;5.25;;;;;-144.76;100.00;60493.00;5094516;27;45120;-81
2022/09/14 00:35:07;;;;;;;;;7.25;6.00;;;;;-144.76;100.00;60493.00;5094378;28;56671;-81
2022/09/14 00:37:33;;;;;;;;;6.75;6.50;;;;;-144.76;100.00;60493.00;5094795;28;45187;-81
2022/09/14 00:39:59;;;;;;;;;6.50;6.50;;;;;-144.76;100.00;60493.00;5094540;27;45013;-81
2022/09/14 00:42:24;;;;;;;;;7.00;6.25;;;;;-144.76;100.00;60493.00;5094162;27;44973;-81
2022/09/14 00:44:49;;;;;;;;;8.00;7.25;;;;;-144.76;100.00;60493.00;5094686;27;45643;-80
2022/09/14 00:47:16;;;;;;;;;6.67;6.67;;;;;-144.76;100.00;60493.00;5094139;28;45000;-81
2022/09/14 00:49:42;;;;;;;;;8.75;8.25;;;;;-144.76;100.00;60493.00;5094312;27;44995;-81
2022/09/14 00:52:22;;;;;;;;;6.75;6.75;;;;;-144.76;100.00;60493.00;5094181;27;45196;-82
2022/09/14 00:54:52;;;;;;;;;5.50;5.50;;;;;-144.76;100.00;60493.00;5092477;28;46733;-82
2022/09/14 00:57:18;;;;;;;;;6.75;5.50;;;;;-144.76;100.00;60493.00;5094019;28;45031;-81
2022/09/14 00:59:46;;;;;;;;;8.00;8.00;;;;;-144.76;100.00;60493.00;5095046;27;45173;-81
2022/09/14 01:02:15;;;;;;;;;7.00;6.00;;;;;-144.76;100.00;60493.00;5094155;27;45235;-81
2022/09/14 01:04:42;;;;;;;;;8.75;7.75;;;;;-144.76;100.00;60493.00;5094072;27;45058;-81
2022/09/14 01:07:25;;;;;;;;;7.00;5.00;;;;;-144.76;100.00;60493.00;5094065;27;45019;-81
2022/09/14 01:10:07;;;;;;;;;9.25;6.50;;;;;-144.76;100.00;60493.00;5094035;27;45086;-81
2022/09/14 01:13:11;;;;;;;;;8.00;6.00;;;;;-144.76;100.00;60493.00;5093913;27;44919;-82
2022/09/14 01:15:55;;;;;;;;;6.00;5.00;;;;;-144.76;100.00;60493.00;5094078;27;45435;-81
2022/09/14 01:18:30;;;;;;;;;7.50;6.25;;;;;-144.76;100.00;60493.00;5094003;27;45331;-82
2022/09/14 01:21:09;;;;;;;;;6.00;5.00;;;;;-144.76;100.00;60493.00;5094172;27;44931;-81
2022/09/14 01:24:07;;;;;;;;;7.00;6.00;;;;;-144.76;100.00;60493.00;5094595;28;45222;-81
2022/09/14 01:26:50;;;;;;;;;6.00;6.00;;;;;-144.76;100.00;60493.00;5092919;27;45278;-82
2022/09/14 01:29:36;;;;;;;;;7.75;7.50;;;;;-144.76;100.00;60493.00;5094137;28;45452;-81
2022/09/14 01:32:15;;;;;;;;;7.00;6.75;;;;;-144.76;100.00;60493.00;5094015;27;45067;-81
2022/09/14 01:34:56;;;;;;;;;7.75;7.00;;;;;-144.76;100.00;60493.00;5093380;27;45186;-82
2022/09/14 01:37:28;;;;;;;;;8.00;7.50;;;;;-144.76;100.00;60493.00;5093839;27;45766;-81
2022/09/14 01:40:19;;;;;;;;;6.25;5.75;;;;;-144.76;100.00;60493.00;5093437;27;45480;-81
2022/09/14 01:42:51;;;;;;;;;5.75;5.75;;;;;-144.76;100.00;60493.00;5093304;28;44952;-82
2022/09/14 01:45:18;;;;;;;;;7.00;6.25;;;;;-144.76;100.00;60493.00;5094012;27;44992;-82
2022/09/14 01:47:51;;;;;;;;;8.75;7.00;;;;;-144.76;100.00;60493.00;5091990;28;47173;-82
2022/09/14 01:50:23;;;;;;;;;6.75;6.25;;;;;-144.76;100.00;60493.00;5093622;27;45111;-82
2022/09/14 01:53:06;;;;;;;;;7.00;7.00;;;;;-144.76;100.00;60493.00;5093762;27;44973;-82
2022/09/14 01:55:38;;;;;;;;;7.00;6.75;;;;;-144.76;100.00;60493.00;5093469;27;44869;-82
2022/09/14 01:58:08;;;;;;;;;8.50;7.25;;;;;-144.76;100.00;60493.00;5092853;27;45659;-82
2022/09/14 02:00:38;;;;;;;;;6.25;6.25;;;;;-144.76;100.00;60493.00;5093363;27;45187;-82
2022/09/14 02:03:14;;;;;;;;;5.75;5.75;;;;;-144.76;100.00;60493.00;5093688;27;44953;-82
2022/09/14 02:05:49;;;;;;;;;6.25;6.00;;;;;-144.76;100.00;60493.00;5093702;28;44934;-82
2022/09/14 02:08:15;;;;;;;;;8.00;8.00;;;;;-144.76;100.00;60493.00;5093386;27;46011;-82
2022/09/14 02:10:40;;;;;;;;;8.00;7.00;;;;;-144.76;100.00;60493.00;5092906;28;44846;-82
2022/09/14 02:13:07;;;;;;;;;6.25;6.25;;;;;-144.76;100.00;60493.00;5108922;27;44967;-82
2022/09/14 02:15:34;;;;;;;;;6.50;6.50;;;;;-144.76;100.00;60493.00;5093673;27;44927;-82
2022/09/14 02:18:00;;;;;;;;;6.25;6.25;;;;;-144.76;100.00;60493.00;5092797;27;45169;-82
2022/09/14 02:20:40;;;;;;;;;8.00;7.50;;;;;-144.76;100.00;60493.00;5093367;27;45201;-82
2022/09/14 02:23:05;;;;;;;;;7.00;6.75;;;;;-144.76;100.00;60493.00;5093105;27;45062;-82
2022/09/14 02:25:31;;;;;;;;;8.25;8.25;;;;;-144.76;100.00;60493.00;5091424;28;45167;-82
2022/09/14 02:27:57;;;;;;;;;5.75;5.00;;;;;-144.76;100.00;60493.00;5092483;27;46078;-82
2022/09/14 02:30:22;;;;;;;;;6.75;6.50;;;;;-144.76;100.00;60493.00;5093266;27;44909;-82
2022/09/14 02:32:57;;;;;;;;;7.00;6.00;;;;;-144.76;100.00;60493.00;5093430;27;45228;-82
2022/09/14 02:35:30;;;;;;;;;6.75;5.75;;;;;-144.76;100.00;60493.00;5093448;27;45088;-81
2022/09/14 02:37:56;;;;;;;;;7.50;7.25;;;;;-144.76;100.00;60493.00;5108623;27;47583;-82
2022/09/14 02:40:36;;;;;;;;;6.33;6.00;;;;;-144.76;100.00;60493.00;5092485;28;44914;-81
2022/09/14 02:43:23;;;;;;;;;7.00;7.00;;;;;-144.76;100.00;60493.00;5092368;28;44866;-82
2022/09/14 02:46:08;;;;;;;;;9.50;8.75;;;;;-144.76;100.00;60493.00;5092748;27;45023;-82
2022/09/14 02:48:44;;;;;;;;;6.00;6.00;;;;;-144.76;100.00;60493.00;5092813;27;45805;-82
2022/09/14 02:51:25;;;;;;;;;7.25;6.50;;;;;-144.76;100.00;60493.00;5091786;27;45012;-82
2022/09/14 02:54:09;;;;;;;;;6.50;6.00;;;;;-144.76;100.00;60493.00;5092954;28;45033;-82
2022/09/14 02:56:36;;;;;;;;;6.25;5.75;;;;;-144.76;100.00;60493.00;5092052;28;45134;-82
2022/09/14 02:59:02;;;;;;;;;8.25;7.00;;;;;-144.76;100.00;60493.00;5092360;27;45162;-81
2022/09/14 03:01:27;;;;;;;;;7.00;7.00;;;;;-144.76;100.00;60493.00;5090764;28;45321;-81
2022/09/14 03:03:52;;;;;;;;;7.00;7.00;;;;;-144.76;100.00;60493.00;5092769;27;45088;-81
2022/09/14 03:06:18;;;;;;;;;8.50;8.50;;;;;-144.76;100.00;60493.00;5091279;28;45316;-81
2022/09/14 03:08:43;;;;;;;;;7.50;7.50;;;;;-144.76;100.00;60493.00;5107820;27;47124;-81
2022/09/14 03:11:09;;;;;;;;;7.25;6.25;;;;;-144.76;100.00;60493.00;5092022;27;45162;-82
2022/09/14 03:13:35;;;;;;;;;8.00;7.50;;;;;-144.76;100.00;60493.00;5091602;28;45133;-82
2022/09/14 03:16:12;;;;;;;;;6.00;6.00;;;;;-144.76;100.00;60493.00;5092137;27;44929;-81
2022/09/14 03:18:38;;;;;;;;;7.00;7.00;;;;;-144.76;100.00;60493.00;5091910;27;45241;-81
2022/09/14 03:21:05;;;;;;;;;9.00;8.25;;;;;-144.76;100.00;60493.00;5091898;27;45025;-81
2022/09/14 03:23:35;;;;;;;;;7.50;7.25;;;;;-144.76;100.00;60493.00;5107589;27;45023;-81
2022/09/14 03:26:00;;;;;;;;;7.00;7.00;;;;;-144.76;100.00;60493.00;5091958;27;44952;-81
2022/09/14 03:28:26;;;;;;;;;6.75;5.75;;;;;-144.76;100.00;60493.00;5091017;28;66123;-82
2022/09/14 03:30:51;;;;;;;;;5.25;5.25;;;;;-144.76;100.00;60493.00;5091499;28;52650;-81
2022/09/14 03:33:17;;;;;;;;;7.75;7.75;;;;;-144.76;100.00;60493.00;5092091;27;45163;-81
2022/09/14 03:35:42;;;;;;;;;5.00;5.00;;;;;-144.76;100.00;60493.00;5090276;28;60870;-81
2022/09/14 03:38:07;;;;;;;;;7.75;6.00;;;;;-144.76;100.00;60493.00;5090959;27;54972;-81
2022/09/14 03:40:32;;;;;;;;;7.25;6.25;;;;;-144.76;100.00;60493.00;5091817;27;44966;-81
2022/09/14 03:42:58;;;;;;;;;6.25;6.25;;;;;-144.76;100.00;60493.00;5091083;28;47923;-81
2022/09/14 03:45:23;;;;;;;;;7.00;7.00;;;;;-144.76;100.00;60493.00;5091411;27;45060;-82
2022/09/14 03:47:49;;;;;;;;;5.50;5.50;;;;;-144.76;100.00;60493.00;5091755;27;45545;-82
2022/09/14 03:50:16;;;;;;;;;4.25;4.25;;;;;-144.76;100.00;60493.00;5091708;28;45609;-81
2022/09/14 03:52:41;;;;;;;;;7.00;6.00;;;;;-144.76;100.00;60493.00;5091841;27;45069;-81
2022/09/14 03:55:08;;;;;;;;;7.00;5.75;;;;;-144.76;100.00;60493.00;5091333;27;44979;-81
2022/09/14 03:57:34;;;;;;;;;8.00;7.50;;;;;-144.76;100.00;60493.00;5090964;27;45584;-81
2022/09/14 03:59:59;;;;;;;;;5.00;4.75;;;;;-144.76;100.00;60493.00;5091627;27;45093;-81
2022/09/14 04:02:24;;;;;;;;;6.00;5.75;;;;;-144.76;100.00;60493.00;5090479;28;44936;-81
2022/09/14 04:04:50;;;;;;;;;6.00;5.00;;;;;-144.76;100.00;60493.00;5091703;27;44911;-81
2022/09/14 04:07:15;;;;;;;;;6.00;5.00;;;;;-144.76;100.00;60493.00;5091452;27;44960;-82
2022/09/14 04:09:41;;;;;;;;;6.50;6.50;;;;;-144.76;100.00;60493.00;5090809;27;44989;-81
2022/09/14 04:12:06;;;;;;;;;7.00;4.75;;;;;-144.76;100.00;60493.00;5091151;27;45031;-81
2022/09/14 04:14:32;;;;;;;;;6.00;5.25;;;;;-144.76;100.00;60493.00;5092051;27;45453;-81
2022/09/14 04:16:57;;;;;;;;;6.25;5.75;;;;;-144.76;100.00;60493.00;5090811;28;58889;-82
2022/09/14 04:19:23;;;;;;;;;5.00;5.00;;;;;-144.76;100.00;60493.00;5091313;27;45127;-82
2022/09/14 04:21:48;;;;;;;;;4.50;4.50;;;;;-144.76;100.00;60493.00;5091315;27;44912;-81
2022/09/14 04:24:13;;;;;;;;;5.25;5.25;;;;;-144.76;100.00;60493.00;5091782;27;45057;-81
2022/09/14 04:26:39;;;;;;;;;5.75;5.00;;;;;-144.76;100.00;60493.00;5090410;28;45311;-81
2022/09/14 04:29:04;;;;;;;;;7.75;6.00;;;;;-144.76;100.00;60493.00;5091302;27;45092;-81
2022/09/14 04:31:31;;;;;;;;;6.00;4.75;;;;;-144.76;100.00;60493.00;5091101;27;45663;-81
2022/09/14 04:33:56;;;;;;;;;4.75;4.00;;;;;-144.76;100.00;60493.00;5091405;27;45398;-81
2022/09/14 04:36:27;;;;;;;;;7.00;6.00;;;;;-144.76;100.00;60493.00;5091164;27;45905;-81
2022/09/14 04:38:53;;;;;;;;;7.50;5.50;;;;;-144.76;100.00;60493.00;5091228;27;45078;-81
2022/09/14 04:41:20;;;;;;;;;4.25;4.25;;;;;-144.76;100.00;60493.00;5090611;27;45172;-81
2022/09/14 04:43:48;;;;;;;;;7.00;5.75;;;;;-144.76;100.00;60493.00;5091121;28;45009;-81
2022/09/14 04:46:18;;;;;;;;;6.00;5.50;;;;;-144.76;100.00;60493.00;5091078;27;45216;-81
2022/09/14 04:48:44;;;;;;;;;5.00;5.00;;;;;-144.76;100.00;60493.00;5090939;27;45147;-81
2022/09/14 04:51:12;;;;;;;;;5.25;5.25;;;;;-144.76;100.00;60493.00;5091008;28;45139;-82
2022/09/14 04:53:38;;;;;;;;;6.00;6.00;;;;;-144.76;100.00;60493.00;5090740;27;45008;-81
2022/09/14 04:56:06;;;;;;;;;5.25;5.00;;;;;-144.76;100.00;60493.00;5090529;27;45199;-82
2022/09/14 04:58:33;;;;;;;;;7.75;6.00;;;;;-144.76;100.00;60493.00;5090607;28;45447;-81
2022/09/14 05:01:10;;;;;;;;;4.75;4.50;;;;;-144.76;100.00;60493.00;5090761;27;45015;-82
2022/09/14 05:03:40;;;;;;;;;5.75;5.75;;;;;-144.76;100.00;60493.00;5090780;27;45153;-81
2022/09/14 05:06:08;;;;;;;;;6.25;5.50;;;;;-144.76;100.00;60493.00;5091015;27;45708;-81
2022/09/14 05:08:35;;;;;;;;;7.00;6.50;;;;;-144.76;100.00;60493.00;5090366;27;45086;-81
2022/09/14 05:11:01;;;;;;;;;6.00;5.00;;;;;-144.76;100.00;60493.00;5090642;28;45059;-81
2022/09/14 05:13:26;;;;;;;;;6.50;5.75;;;;;-144.76;100.00;60493.00;5091026;27;45020;-81
2022/09/14 05:15:51;;;;;;;;;8.00;7.25;;;;;-144.76;100.00;60493.00;5093772;27;44995;-82
2022/09/14 05:18:17;;;;;;;;;7.25;5.25;;;;;-144.76;100.00;60493.00;5094105;27;45052;-81
2022/09/14 05:20:43;;;;;;;;;5.00;4.50;;;;;-144.76;100.00;60493.00;5094292;27;45090;-82
2022/09/14 05:23:08;;;;;;;;;5.00;5.00;;;;;-144.76;100.00;60493.00;5094441;27;44987;-81
2022/09/14 05:25:34;;;;;;;;;5.25;5.00;;;;;-144.76;100.00;60493.00;5093826;27;45349;-83
2022/09/14 05:27:59;;;;;;;;;5.00;5.00;;;;;-144.76;100.00;60493.00;5093471;27;45116;-81
2022/09/14 05:30:24;;;;;;;;;7.00;6.50;;;;;-144.76;100.00;60493.00;5093929;27;45115;-81
2022/09/14 05:32:49;;;;;;;;;7.25;7.00;;;;;-144.76;100.00;60493.00;5093756;27;44962;-81
2022/09/14 05:35:15;;;;;;;;;5.75;5.75;;;;;-144.76;100.00;60493.00;5093620;28;55691;-81
2022/09/14 05:37:40;;;;;;;;;7.25;6.00;;;;;-144.76;100.00;60493.00;5093803;27;45366;-81
2022/09/14 05:40:07;;;;;;;;;8.00;8.00;;;;;-144.76;100.00;60493.00;5093707;27;46628;-81
2022/09/14 05:42:32;;;;;;;;;6.25;6.25;;;;;-144.76;100.00;60493.00;5093677;27;45127;-81
2022/09/14 05:44:58;;;;;;;;;7.25;7.25;;;;;-144.76;100.00;60493.00;5093491;27;45314;-81
2022/09/14 05:47:23;;;;;;;;;7.25;7.00;;;;;-144.76;100.00;60493.00;5093769;27;45366;-81
2022/09/14 05:49:48;;;;;;;;;8.33;8.33;;;;;-144.76;100.00;60493.00;5092806;28;58075;-81
2022/09/14 05:52:14;;;;;;;;;8.00;7.25;;;;;-144.76;100.00;60493.00;5092962;28;51334;-81
2022/09/14 05:54:39;;;;;;;;;8.00;8.00;;;;;-144.76;100.00;60493.00;5093079;28;45447;-81
2022/09/14 05:57:04;;;;;;;;;7.50;7.25;;;;;-144.76;100.00;60493.00;5108604;27;44991;-81
2022/09/14 05:59:30;;;;;;;;;7.67;7.67;;;;;-144.76;100.00;60493.00;5092751;28;59583;-81
2022/09/14 06:01:56;;;;;;;;;6.00;4.75;;;;;-144.76;100.00;60493.00;5093737;27;44997;-81
2022/09/14 06:04:22;;;;;;;;;8.50;8.50;;;;;-144.76;100.00;60493.00;5093074;27;45325;-81
2022/09/14 06:06:47;;;;;;;;;7.00;7.00;;;;;-144.76;100.00;60493.00;5093236;27;44867;-81
2022/09/14 06:09:14;;;;;;;;;6.00;6.00;;;;;-144.76;100.00;60493.00;5093739;27;45720;-81
2022/09/14 06:11:39;;;;;;;;;8.00;7.00;;;;;-144.76;100.00;60493.00;5092286;28;45017;-81
2022/09/14 06:14:05;;;;;;;;;7.25;7.25;;;;;-144.76;100.00;60493.00;5092942;27;46129;-81
2022/09/14 06:16:30;;;;;;;;;7.00;6.00;;;;;-144.76;100.00;60493.00;5091983;28;44973;-81
2022/09/14 06:18:57;;;;;;;;;7.75;7.00;;;;;-144.76;100.00;60493.00;5092816;27;45024;-81
2022/09/14 06:21:26;;;;;;;;;10.00;8.00;;;;;-144.76;100.00;60493.00;5093156;27;45091;-82
2022/09/14 06:23:51;;;;;;;;;6.75;6.75;;;;;-144.76;100.00;60493.00;5092920;27;45771;-81
2022/09/14 06:26:16;;;;;;;;;7.50;6.50;;;;;-144.76;100.00;60493.00;5091538;27;45076;-81
2022/09/14 06:28:42;;;;;;;;;9.00;8.75;;;;;-144.76;100.00;60493.00;5092296;27;53237;-81
2022/09/14 06:31:11;;;;;;;;;7.00;7.00;;;;;-144.76;100.00;60493.00;5093103;27;45352;-81
2022/09/14 06:33:36;;;;;;;;;9.00;8.00;;;;;-144.76;100.00;60493.00;5092662;27;45921;-81
2022/09/14 06:36:08;;;;;;;;;9.00;8.00;;;;;-144.76;100.00;60493.00;5093214;27;45004;-82
2022/09/14 06:38:34;;;;;;;;;9.00;7.75;;;;;-144.76;100.00;60493.00;5092872;28;45030;-81
2022/09/14 06:41:01;;;;;;;;;9.00;8.25;;;;;-144.76;100.00;60493.00;5093119;27;45351;-81
2022/09/14 06:43:29;;;;;;;;;8.75;7.00;;;;;-144.76;100.00;60493.00;5091109;28;47096;-81
2022/09/14 06:45:59;;;;;;;;;10.00;10.00;;;;;-144.76;100.00;60493.00;5092624;27;45530;-81
2022/09/14 06:48:27;;;;;;;;;10.00;9.25;;;;;-144.76;100.00;60493.00;5092839;28;45038;-81
2022/09/14 06:50:52;;;;;;;;;7.75;7.75;;;;;-144.76;100.00;60493.00;5092469;27;44925;-82
2022/09/14 06:53:18;;;;;;;;;9.25;9.25;;;;;-144.76;100.00;60493.00;5092255;27;45510;-81
2022/09/14 06:55:44;;;;;;;;;13.25;12.00;;;;;-144.76;100.00;60493.00;5092447;27;45115;-81
2022/09/14 06:58:10;;;;;;;;;12.00;11.00;;;;;-144.76;100.00;60493.00;5092117;27;45198;-81
2022/09/14 07:00:35;;;;;;;;;13.50;10.75;;;;;-144.76;100.00;60493.00;5093048;27;45252;-81
2022/09/14 07:03:01;;;;;;;;;10.50;10.25;;;;;-144.76;100.00;60493.00;5092004;27;45187;-81
2022/09/14 07:05:26;;;;;;;;;11.00;10.25;;;;;-144.76;100.00;60493.00;5092173;27;59005;-81
2022/09/14 07:07:52;;;;;;;;;10.00;9.75;;;;;-144.76;100.00;60493.00;5092229;27;45164;-81
2022/09/14 07:10:18;;;;;;;;;9.75;9.25;;;;;-144.76;100.00;60493.00;5091869;28;45166;-82
2022/09/14 07:12:43;;;;;;;;;10.00;9.25;;;;;-144.76;100.00;60493.00;5092168;28;45414;-81
2022/09/14 07:15:09;;;;;;;;;6.75;6.00;;;;;-144.76;100.00;60493.00;5092268;27;45118;-81
2022/09/14 07:17:35;;;;;;;;;7.00;6.50;;;;;-144.76;100.00;60493.00;5092064;27;44923;-82
2022/09/14 07:20:05;;;;;;;;;8.00;8.00;;;;;-144.76;100.00;60493.00;5092344;28;45155;-81
2022/09/14 07:22:34;;;;;;;;;7.50;7.50;;;;;-144.76;100.00;60493.00;5091804;27;45153;-81
2022/09/14 07:24:59;;;;;;;;;10.00;8.50;;;;;-144.76;100.00;60493.00;5091730;27;45369;-81
2022/09/14 07:27:24;;;;;;;;;9.75;8.25;;;;;-144.76;100.00;60493.00;5092184;27;44941;-81
2022/09/14 07:29:50;;;;;;;;;8.00;7.75;;;;;-144.76;100.00;60493.00;5092185;27;45059;-81
2022/09/14 07:32:15;;;;;;;;;7.67;7.67;;;;;-144.76;100.00;60493.00;5106617;27;69314;-81
2022/09/14 07:34:40;;;;;;;;;10.25;9.50;;;;;-144.76;100.00;60493.00;5092194;28;46791;-81
2022/09/14 07:37:05;;;;;;;;;9.00;8.75;;;;;-144.76;100.00;60493.00;5091387;27;46895;-81
2022/09/14 07:39:31;;;;;;;;;10.25;9.25;;;;;-144.76;100.00;60493.00;5091227;28;52123;-81
2022/09/14 07:41:56;;;;;;;;;9.00;8.33;;;;;-144.76;100.00;60493.00;5090886;28;62315;-82
2022/09/14 07:44:21;;;;;;;;;10.25;9.50;;;;;-144.76;100.00;60493.00;5092133;27;44976;-82
2022/09/14 07:46:47;;;;;;;;;9.00;8.25;;;;;-144.76;100.00;60493.00;5091833;27;45167;-82
2022/09/14 07:49:14;;;;;;;;;10.25;10.25;;;;;-144.76;100.00;60493.00;5092215;27;44969;-82
2022/09/14 07:51:39;;;;;;;;;9.25;8.50;;;;;-144.76;100.00;60493.00;5091459;27;45165;-82
2022/09/14 07:54:07;;;;;;;;;8.75;8.75;;;;;-144.76;100.00;60493.00;5091405;27;44953;-81
2022/09/14 07:56:33;;;;;;;;;10.00;9.75;;;;;-144.76;100.00;60493.00;5091209;27;45166;-81
2022/09/14 07:58:59;;;;;;;;;12.75;11.50;;;;;-144.76;100.00;60493.00;5091842;27;44946;-81
2022/09/14 08:01:28;;;;;;;;;9.50;8.25;;;;;-144.76;100.00;60493.00;5091662;27;45296;-81
2022/09/14 08:03:53;;;;;;;;;9.00;9.00;;;;;-144.76;100.00;60493.00;5091463;28;45407;-81
2022/09/14 08:06:21;;;;;;;;;8.67;8.00;;;;;-144.76;100.00;60493.00;5090678;28;58241;-82
2022/09/14 08:08:48;;;;;;;;;9.75;9.25;;;;;-144.76;100.00;60493.00;5091651;27;44988;-81
2022/09/14 08:11:15;;;;;;;;;9.00;7.75;;;;;-144.76;100.00;60493.00;5090976;27;45579;-81
2022/09/14 08:13:44;;;;;;;;;9.50;9.25;;;;;-144.76;100.00;60493.00;5091104;27;45350;-82
2022/09/14 08:16:10;;;;;;;;;9.50;8.00;;;;;-144.76;100.00;60493.00;5107581;27;45117;-81
2022/09/14 08:18:36;;;;;;;;;7.00;6.25;;;;;-144.76;100.00;60493.00;5091626;27;45104;-82
2022/09/14 08:21:09;;;;;;;;;6.75;6.25;;;;;-144.76;100.00;60493.00;5091258;27;45649;-82
2022/09/14 08:23:35;;;;;;;;;7.25;7.25;;;;;-144.76;100.00;60493.00;5090882;27;45107;-81
2022/09/14 08:26:09;;;;;;;;;6.50;6.50;;;;;-144.76;100.00;60493.00;5091504;27;44998;-82
2022/09/14 08:28:35;;;;;;;;;8.00;8.00;;;;;-144.76;100.00;60493.00;5090802;27;44933;-82
2022/09/14 08:31:14;;;;;;;;;8.25;8.25;;;;;-144.76;100.00;60493.00;5091677;27;46009;-82
2022/09/14 08:33:43;;;;;;;;;9.25;8.25;;;;;-144.76;100.00;60493.00;5091581;28;45296;-82
2022/09/14 08:36:10;;;;;;;;;11.00;10.00;;;;;-144.76;100.00;60493.00;5091272;27;45155;-81
2022/09/14 08:38:35;;;;;;;;;10.25;8.00;;;;;-144.76;100.00;60493.00;5091698;27;45236;-81
2022/09/14 08:41:08;;;;;;;;;8.25;8.00;;;;;-144.76;100.00;60493.00;5091054;27;45556;-82
2022/09/14 08:43:34;;;;;;;;;8.50;8.00;;;;;-144.76;100.00;60493.00;5090254;28;45336;-81
2022/09/14 08:46:08;;;;;;;;;8.50;8.00;;;;;-144.76;100.00;60493.00;5090731;27;45051;-82
2022/09/14 08:48:46;;;;;;;;;7.50;7.50;;;;;-144.76;100.00;60493.00;5107557;27;44916;-82
2022/09/14 08:51:11;;;;;;;;;7.25;7.25;;;;;-144.76;100.00;60493.00;5094644;27;45213;-82
2022/09/14 08:53:39;;;;;;;;;9.75;8.75;;;;;-144.76;100.00;60493.00;5094657;27;44953;-81
2022/09/14 08:56:17;;;;;;;;;9.00;9.00;;;;;-144.76;100.00;60493.00;5094444;27;45118;-82
2022/09/14 08:58:54;;;;;;;;;9.00;8.50;;;;;-144.76;100.00;60493.00;5095109;27;45105;-82
2022/09/14 09:01:49;;;;;;;;;9.50;7.50;;;;;-144.76;100.00;60493.00;5094438;27;45026;-82
2022/09/14 09:04:43;;;;;;;;;9.75;9.50;;;;;-144.76;100.00;60493.00;5094601;27;45185;-82
2022/09/14 09:07:16;;;;;;;;;9.00;7.25;;;;;-144.76;100.00;60493.00;5094350;28;45099;-82
2022/09/14 09:09:45;;;;;;;;;9.25;9.00;;;;;-144.76;100.00;60493.00;5094704;27;45138;-82
2022/09/14 09:12:20;;;;;;;;;10.50;9.50;;;;;-144.76;100.00;60493.00;5093551;27;45626;-82
2022/09/14 09:15:13;;;;;;;;;9.00;8.25;;;;;-144.76;100.00;60493.00;5094107;28;45589;-82
2022/09/14 09:17:43;;;;;;;;;9.00;8.50;;;;;-144.76;100.00;60493.00;5093909;27;45175;-82
2022/09/14 09:20:15;;;;;;;;;9.00;8.00;;;;;-144.76;100.00;60493.00;5094331;28;45177;-82
2022/09/14 09:22:55;;;;;;;;;8.25;7.25;;;;;-144.76;100.00;60493.00;5109713;27;47921;-82
2022/09/14 09:25:27;;;;;;;;;8.00;7.00;;;;;-144.76;100.00;60493.00;5093852;28;45337;-82
2022/09/14 09:28:01;;;;;;;;;8.75;8.00;;;;;-144.76;100.00;60493.00;5093651;27;44989;-82
2022/09/14 09:30:28;;;;;;;;;7.50;6.75;;;;;-144.76;100.00;60493.00;5094030;27;45110;-83
2022/09/14 09:32:53;;;;;;;;;6.00;6.00;;;;;-144.76;100.00;60493.00;5094059;27;45551;-83
2022/09/14 09:35:22;;;;;;;;;7.00;6.25;;;;;-144.76;100.00;60493.00;5093950;28;45133;-82
2022/09/14 09:37:47;;;;;;;;;8.50;7.50;;;;;-144.76;100.00;60493.00;5093770;27;45044;-82
2022/09/14 09:40:16;;;;;;;;;9.00;8.25;;;;;-144.76;100.00;60493.00;5109526;27;45080;-81
2022/09/14 09:43:07;;;;;;;;;10.25;10.25;;;;;-144.76;100.00;60493.00;5108529;27;46810;-81
2022/09/14 09:46:02;;;;;;;;;7.50;7.50;;;;;-144.76;100.00;60493.00;5109662;27;45422;-81
2022/09/14 09:48:38;;;;;;;;;10.25;8.50;;;;;-144.76;100.00;60493.00;5093913;27;45094;-81
2022/09/14 09:51:09;;;;;;;;;5.50;5.50;;;;;-144.76;100.00;60493.00;5093036;27;44943;-81
2022/09/14 09:53:44;;;;;;;;;8.00;7.00;;;;;-144.76;100.00;60493.00;5093435;27;45804;-81
2022/09/14 09:56:17;;;;;;;;;6.00;6.00;;;;;-144.76;100.00;60493.00;5093121;27;45149;-81
2022/09/14 09:58:42;;;;;;;;;5.00;5.00;;;;;-144.76;100.00;60493.00;5093508;27;44873;-81
2022/09/14 10:01:31;;;;;;;;;4.75;4.75;;;;;-144.76;100.00;60493.00;5109350;27;45212;-81
2022/09/14 10:04:18;;;;;;;;;6.50;6.50;;;;;-144.76;100.00;60493.00;5093639;28;45375;-81
2022/09/14 10:06:48;;;;;;;;;5.50;5.50;;;;;-144.76;100.00;60493.00;5093336;28;44975;-81
2022/09/14 10:09:20;;;;;;;;;8.00;7.00;;;;;-144.76;100.00;60493.00;5093410;27;45059;-81
2022/09/14 10:11:54;;;;;;;;;6.00;6.00;;;;;-144.76;100.00;60493.00;5092349;27;45202;-82
2022/09/14 10:14:32;;;;;;;;;6.00;6.00;;;;;-144.76;100.00;60493.00;5092939;27;45182;-81
2022/09/14 10:17:05;;;;;;;;;7.00;7.00;;;;;-144.76;100.00;60493.00;5093324;27;45135;-81
2022/09/14 10:19:32;;;;;;;;;6.50;6.00;;;;;-144.76;100.00;60493.00;5092993;27;44935;-81
2022/09/14 10:22:04;;;;;;;;;6.00;5.50;;;;;-144.76;100.00;60493.00;5093525;27;45199;-81
2022/09/14 10:24:33;;;;;;;;;6.50;6.00;;;;;-144.76;100.00;60493.00;5093138;28;45182;-81
2022/09/14 10:26:58;;;;;;;;;10.75;10.00;;;;;-144.76;100.00;60493.00;5092333;27;45430;-81
2022/09/14 10:29:47;;;;;;;;;6.25;6.25;;;;;-144.76;100.00;60493.00;5092894;28;46450;-82
2022/09/14 10:32:19;;;;;;;;;6.25;6.25;;;;;-144.76;100.00;60493.00;5092538;27;44994;-82
2022/09/14 10:34:45;;;;;;;;;7.00;7.00;;;;;-144.76;100.00;60493.00;5093237;28;45507;-81
2022/09/14 10:37:28;;;;;;;;;7.00;6.50;;;;;-144.76;100.00;60493.00;5092926;28;45127;-81
2022/09/14 10:40:12;;;;;;;;;5.75;5.75;;;;;-144.76;100.00;60493.00;5092983;27;44992;-81
2022/09/14 10:43:06;;;;;;;;;7.75;7.00;;;;;-144.76;100.00;60493.00;5092175;28;45150;-81
2022/09/14 10:45:40;;;;;;;;;6.50;6.50;;;;;-144.76;100.00;60493.00;5092622;27;45415;-81
2022/09/14 10:48:35;;;;;;;;;7.00;6.00;;;;;-144.76;100.00;60493.00;5092738;27;45096;-82
2022/09/14 10:51:01;;;;;;;;;5.00;5.00;;;;;-144.76;100.00;60493.00;5092470;28;45146;-82
2022/09/14 10:53:49;;;;;;;;;7.00;7.00;;;;;-144.76;100.00;60493.00;5092306;27;45173;-81
2022/09/14 10:56:20;;;;;;;;;6.00;6.00;;;;;-144.76;100.00;60493.00;5090679;27;45735;-81
2022/09/14 10:59:06;;;;;;;;;7.75;6.00;;;;;-144.76;100.00;60493.00;5092880;28;45223;-81
2022/09/14 11:01:53;;;;;;;;;5.25;5.00;;;;;-144.76;100.00;60493.00;5107952;27;45317;-82
2022/09/14 11:04:37;;;;;;;;;4.25;4.25;;;;;-144.76;100.00;60493.00;5092546;27;44974;-81
2022/09/14 11:07:23;;;;;;;;;6.00;6.00;;;;;-144.76;100.00;60493.00;5091969;28;45621;-82
2022/09/14 11:10:00;;;;;;;;;4.00;4.00;;;;;-144.76;100.00;60493.00;5107894;27;45138;-81
2022/09/14 11:12:42;;;;;;;;;4.25;4.25;;;;;-144.76;100.00;60493.00;5090987;27;44992;-81
2022/09/14 11:15:29;;;;;;;;;3.25;3.25;;;;;-144.76;100.00;60493.00;5092426;27;45162;-81
2022/09/14 11:18:12;;;;;;;;;5.50;4.50;;;;;-144.76;100.00;60493.00;5091863;28;46220;-81
2022/09/14 11:21:02;;;;;;;;;4.50;4.00;;;;;-144.76;100.00;60493.00;5092173;28;45097;-82
2022/09/14 11:23:39;;;;;;;;;5.50;5.50;;;;;-144.76;100.00;60493.00;5108059;27;45085;-81